Latest Weather Observations for Little Bay

IDN60901

Issued at 6:11 am EDT Thursday 6 October 2022 (issued every 10 minutes, with the page automatically refreshed every 10 minutes)

About weather observations | Map of Sydney area stations | Latest observations for Sydney area | Other Formats
Station Details ID: 066051 Name: LITTLE BAY (THE COAST GOLF CLUB) Lat: -33.98 Lon: 151.25 Height: 22.0 m
Data from the previous 72 hours. | See also: Recent months at Little Bay
Date/Time
EDT
Temp
°C
App
Temp
°C
Dew
Point
°C
Rel
Hum
%
Delta-T
°C
Wind Press
QNH
hPa
Press
MSL
hPa
Rain since
9am
mm
Dir  Spd
km/h
Gust
km/h
Spd
kts
Gust
kts
06/06:00am - - - - - ENE 32 46 17 25 - - -
06/05:30am - - - - - NE 28 39 15 21 - - -
06/05:00am - - - - - ENE 28 39 15 21 - - -
06/04:30am - - - - - ENE 28 41 15 22 - - -
06/04:00am - - - - - ENE 19 30 10 16 - - -
06/03:30am - - - - - ENE 28 44 15 24 - - -
06/03:00am - - - - - ENE 32 43 17 23 - - -
06/02:30am - - - - - ENE 28 44 15 24 - - -
06/02:00am - - - - - ENE 26 39 14 21 - - -
06/01:30am - - - - - ENE 28 43 15 23 - - -
06/01:00am - - - - - ENE 26 37 14 20 - - -
06/12:30am - - - - - ENE 28 37 15 20 - - -
06/12:00am - - - - - ENE 28 39 15 21 - - -
 
Date/Time
EDT
Temp
°C
App
Temp
°C
Dew
Point
°C
Rel
Hum
%
Delta-T
°C
Wind Press
QNH
hPa
Press
MSL
hPa
Rain since
9am
mm
Dir  Spd
km/h
Gust
km/h
Spd
kts
Gust
kts
05/11:30pm - - - - - ENE 28 39 15 21 - - -
05/11:00pm - - - - - ENE 30 39 16 21 - - -
05/10:30pm - - - - - ENE 30 43 16 23 - - -
05/10:00pm - - - - - ENE 28 39 15 21 - - -
05/09:30pm - - - - - ENE 32 41 17 22 - - -
05/09:00pm - - - - - E 33 43 18 23 - - -
05/08:30pm - - - - - E 30 39 16 21 - - -
05/08:00pm - - - - - E 33 43 18 23 - - -
05/07:30pm - - - - - E 30 39 16 21 - - -
05/07:00pm - - - - - E 28 41 15 22 - - -
05/06:30pm - - - - - ENE 30 41 16 22 - - -
05/06:00pm - - - - - E 32 43 17 23 - - -
05/05:30pm - - - - - E 32 41 17 22 - - -
05/05:00pm - - - - - E 32 43 17 23 - - -
05/04:30pm - - - - - ENE 26 39 14 21 - - -
05/04:00pm - - - - - ENE 30 43 16 23 - - -
05/03:30pm - - - - - E 35 43 19 23 - - -
05/03:00pm - - - - - ENE 30 41 16 22 - - -
05/02:30pm - - - - - ENE 32 41 17 22 - - -
05/02:00pm - - - - - E 30 39 16 21 - - -
05/01:30pm - - - - - E 30 39 16 21 - - -
05/01:00pm - - - - - E 32 37 17 20 - - -
05/12:30pm - - - - - E 30 37 16 20 - - -
05/12:00pm - - - - - E 30 41 16 22 - - -
05/11:30am - - - - - E 28 35 15 19 - - -
05/11:00am - - - - - ENE 24 35 13 19 - - -
05/10:30am - - - - - E 24 39 13 21 - - -
05/10:00am - - - - - ENE 22 32 12 17 - - -
05/09:30am - - - - - E 24 30 13 16 - - -
05/09:00am - - - - - E 22 32 12 17 - - -
05/08:30am - - - - - E 24 32 13 17 - - -
05/08:00am - - - - - E 22 28 12 15 - - -
05/07:30am - - - - - ESE 24 32 13 17 - - -
05/07:00am - - - - - ESE 24 32 13 17 - - -
05/06:30am - - - - - ESE 24 32 13 17 - - -
05/06:00am - - - - - SE 26 32 14 17 - - -
05/05:30am - - - - - ESE 24 30 13 16 - - -
05/05:00am - - - - - ESE 26 32 14 17 - - -
05/04:30am - - - - - SE 28 33 15 18 - - -
05/04:00am - - - - - SE 28 33 15 18 - - -
05/03:30am - - - - - ESE 28 33 15 18 - - -
05/03:00am - - - - - SE 30 33 16 18 - - -
05/02:30am - - - - - ESE 28 35 15 19 - - -
05/02:00am - - - - - SE 28 33 15 18 - - -
05/01:30am - - - - - SE 26 32 14 17 - - -
05/01:00am - - - - - ESE 19 22 10 12 - - -
05/12:30am - - - - - SE 17 20 9 11 - - -
05/12:00am - - - - - SE 17 22 9 12 - - -
 
Date/Time
EDT
Temp
°C
App
Temp
°C
Dew
Point
°C
Rel
Hum
%
Delta-T
°C
Wind Press
QNH
hPa
Press
MSL
hPa
Rain since
9am
mm
Dir  Spd
km/h
Gust
km/h
Spd
kts
Gust
kts
04/11:30pm - - - - - ESE 15 19 8 10 - - -
04/11:00pm - - - - - ESE 13 17 7 9 - - -
04/10:30pm - - - - - ESE 13 15 7 8 - - -
04/10:00pm - - - - - SE 9 13 5 7 - - -
04/09:30pm - - - - - SE 11 15 6 8 - - -
04/09:00pm - - - - - SSE 15 19 8 10 - - -
04/08:30pm - - - - - SE 11 13 6 7 - - -
04/08:00pm - - - - - SE 7 9 4 5 - - -
04/07:30pm - - - - - SE 9 9 5 5 - - -
04/07:00pm - - - - - ESE 7 9 4 5 - - -
04/06:30pm - - - - - SE 11 13 6 7 - - -
04/06:00pm - - - - - SE 11 15 6 8 - - -
04/05:30pm - - - - - ESE 9 13 5 7 - - -
04/05:00pm - - - - - E 7 9 4 5 - - -
04/04:30pm - - - - - NE 9 13 5 7 - - -
04/04:00pm - - - - - NE 11 15 6 8 - - -
04/03:30pm - - - - - NE 15 22 8 12 - - -
04/03:00pm - - - - - NNE 19 28 10 15 - - -
04/02:30pm - - - - - NNE 19 24 10 13 - - -
04/02:00pm - - - - - NNE 19 26 10 14 - - -
04/01:30pm - - - - - NNE 19 28 10 15 - - -
04/01:00pm - - - - - NE 19 26 10 14 - - -
04/12:30pm - - - - - NE 17 22 9 12 - - -
04/12:00pm - - - - - NE 19 24 10 13 - - -
04/11:30am - - - - - NE 17 22 9 12 - - -
04/11:00am - - - - - NE 13 19 7 10 - - -
04/10:30am - - - - - NE 11 15 6 8 - - -
04/10:00am - - - - - N 4 9 2 5 - - -
04/09:30am - - - - - WNW 9 15 5 8 - - -
04/09:00am - - - - - WNW 11 17 6 9 - - -
04/08:30am - - - - - NW 7 13 4 7 - - -
04/08:00am - - - - - NW 9 13 5 7 - - -
04/07:30am - - - - - WNW 9 13 5 7 - - -
04/07:00am - - - - - WNW 11 17 6 9 - - -
04/06:30am - - - - - WNW 9 15 5 8 - - -
04/06:00am - - - - - WNW 9 15 5 8 - - -
04/05:30am - - - - - NW 7 11 4 6 - - -
04/05:00am - - - - - NW 7 11 4 6 - - -
04/04:30am - - - - - NW 7 11 4 6 - - -
04/04:00am - - - - - NW 7 9 4 5 - - -
04/03:30am - - - - - WNW 7 11 4 6 - - -
04/03:00am - - - - - WNW 6 9 3 5 - - -
04/02:30am - - - - - WNW 7 9 4 5 - - -
04/02:00am - - - - - WNW 9 11 5 6 - - -
04/01:30am - - - - - WNW 9 11 5 6 - - -
04/01:00am - - - - - NW 9 15 5 8 - - -
04/12:30am - - - - - NNW 9 15 5 8 - - -
04/12:00am - - - - - N 11 17 6 9 - - -
 
Date/Time
EDT
Temp
°C
App
Temp
°C
Dew
Point
°C
Rel
Hum
%
Delta-T
°C
Wind Press
QNH
hPa
Press
MSL
hPa
Rain since
9am
mm
Dir  Spd
km/h
Gust
km/h
Spd
kts
Gust
kts
03/11:30pm - - - - - N 13 19 7 10 - - -
03/11:00pm - - - - - N 15 26 8 14 - - -
03/10:30pm - - - - - NNE 15 24 8 13 - - -
03/10:00pm - - - - - NNE 17 26 9 14 - - -
03/09:30pm - - - - - NNE 17 26 9 14 - - -
03/09:00pm - - - - - NNE 17 24 9 13 - - -
03/08:30pm - - - - - NNE 17 24 9 13 - - -
03/08:00pm - - - - - NNE 17 24 9 13 - - -
03/07:30pm - - - - - NNE 17 24 9 13 - - -
03/07:00pm - - - - - NNE 19 28 10 15 - - -
03/06:30pm - - - - - NE 20 28 11 15 - - -
03/06:00pm - - - - - NE 17 24 9 13 - - -
03/05:30pm - - - - - NE 19 24 10 13 - - -
03/05:00pm - - - - - NE 17 22 9 12 - - -
03/04:30pm - - - - - NE 17 24 9 13 - - -
03/04:00pm - - - - - NE 17 22 9 12 - - -
03/03:30pm - - - - - NE 15 20 8 11 - - -
03/03:00pm - - - - - NE 11 19 6 10 - - -
03/02:30pm - - - - - NE 13 17 7 9 - - -
03/02:00pm - - - - - NE 9 15 5 8 - - -
03/01:30pm - - - - - E 9 13 5 7 - - -
03/01:00pm - - - - - ESE 13 17 7 9 - - -
03/12:30pm - - - - - SE 13 17 7 9 - - -
03/12:00pm - - - - - SE 7 11 4 6 - - -
03/11:30am - - - - - ESE 6 9 3 5 - - -
03/11:00am - - - - - SE 7 11 4 6 - - -
03/10:30am - - - - - WSW 6 11 3 6 - - -
03/10:00am - - - - - W 6 11 3 6 - - -
03/09:30am - - - - - W 9 15 5 8 - - -
03/09:00am - - - - - W 9 13 5 7 - - -
03/08:30am - - - - - WNW 7 13 4 7 - - -
03/08:00am - - - - - WNW 13 17 7 9 - - -
03/07:30am - - - - - WNW 11 15 6 8 - - -
03/07:00am - - - - - WNW 9 13 5 7 - - -
03/06:30am - - - - - WNW 9 13 5 7 - - -

Latest Capital City Observations: Canberra | Sydney | Melbourne | Brisbane | Adelaide | Perth | Hobart | Darwin

Other formats

Comma delimited format used in spreadsheet applications
http://www.bom.gov.au/fwo/IDN60901/IDN60901.94780.axf

JavaScript Object Notation format (JSON) in row-major order
http://www.bom.gov.au/fwo/IDN60901/IDN60901.94780.json

Data quality

Most of these data are generated automatically and are frequently updated. Quality checks on data are not normally performed. It is possible for incorrect values to appear. Refer to information at About Latest Weather Observations and please check the disclaimer before using these data.